createdAt,value
2023-03-01T00:01:40.989Z,98425.00
2023-03-01T00:04:08.467Z,98422.72
2023-03-01T00:06:36.778Z,98427.41
2023-03-01T00:09:05.008Z,98428.66
2023-03-01T00:11:34.445Z,98421.25
2023-03-01T00:14:03.479Z,98430.09
2023-03-01T00:16:35.638Z,98434.97
2023-03-01T00:19:03.734Z,98429.34
2023-03-01T00:21:31.122Z,98431.75
2023-03-01T00:23:59.302Z,98432.13
2023-03-01T00:26:27.544Z,98425.78
2023-03-01T00:28:58.592Z,98432.31
2023-03-01T00:31:30.412Z,98417.13
2023-03-01T00:34:04.729Z,98433.22
2023-03-01T00:36:36.022Z,98418.75
2023-03-01T00:39:05.906Z,98426.66
2023-03-01T00:41:34.924Z,98418.78
2023-03-01T00:44:03.185Z,98418.66
2023-03-01T00:46:31.836Z,98421.38
2023-03-01T00:48:59.758Z,98420.38
2023-03-01T00:51:29.260Z,98411.97
2023-03-01T00:54:01.572Z,98414.88
2023-03-01T00:56:30.205Z,98405.97
2023-03-01T00:58:57.725Z,98406.88
2023-03-01T01:01:32.596Z,98404.91
2023-03-01T01:04:06.384Z,98406.72
2023-03-01T01:06:44.959Z,98407.91
2023-03-01T01:09:19.691Z,98414.28
2023-03-01T01:11:51.180Z,98411.22
2023-03-01T01:14:19.534Z,98416.59
2023-03-01T01:16:46.910Z,98420.00
2023-03-01T01:19:14.698Z,98418.06
2023-03-01T01:21:44.269Z,98413.88
2023-03-01T01:24:12.358Z,98405.41
2023-03-01T01:26:39.722Z,98396.47
2023-03-01T01:29:08.000Z,98397.06
2023-03-01T01:31:37.012Z,98401.41
2023-03-01T01:34:07.037Z,98406.38
2023-03-01T01:36:36.064Z,98399.94
2023-03-01T01:39:04.356Z,98406.38
2023-03-01T01:41:31.817Z,98402.59
2023-03-01T01:44:24.574Z,98394.50
2023-03-01T01:47:02.156Z,98392.66
2023-03-01T01:49:44.690Z,98392.22
2023-03-01T01:52:25.435Z,98388.88
2023-03-01T01:55:01.258Z,98396.69
2023-03-01T01:57:46.017Z,98402.41
2023-03-01T02:00:22.578Z,98394.50
2023-03-01T02:02:57.555Z,98395.22
2023-03-01T02:05:56.702Z,98395.13
2023-03-01T02:08:31.441Z,98386.25
2023-03-01T02:11:00.808Z,98393.91
2023-03-01T02:13:29.492Z,98398.34
2023-03-01T02:15:57.133Z,98389.81
2023-03-01T02:18:25.938Z,98393.09
2023-03-01T02:21:46.256Z,98383.03
2023-03-01T02:24:47.232Z,98388.56
2023-03-01T02:27:14.766Z,98388.28
2023-03-01T02:29:44.994Z,98380.38
2023-03-01T02:32:13.437Z,98376.75
2023-03-01T02:34:41.067Z,98381.34
2023-03-01T02:37:21.564Z,98370.69
2023-03-01T02:39:51.585Z,98372.25
2023-03-01T02:42:27.436Z,98368.03
2023-03-01T02:44:54.878Z,98361.41
2023-03-01T02:47:22.181Z,98352.06
2023-03-01T02:49:49.410Z,98350.59
2023-03-01T02:52:42.132Z,98348.31
2023-03-01T02:55:14.911Z,98345.28
2023-03-01T02:57:45.752Z,98335.22
2023-03-01T03:00:26.177Z,98330.69
2023-03-01T03:02:55.360Z,98331.53
2023-03-01T03:05:29.567Z,98331.06
2023-03-01T03:08:00.868Z,98331.06
2023-03-01T03:10:32.196Z,98332.84
2023-03-01T03:13:12.020Z,98328.47
2023-03-01T03:15:40.119Z,98326.56
2023-03-01T03:18:11.921Z,98324.41
2023-03-01T03:20:42.911Z,98333.34
2023-03-01T03:23:10.501Z,98332.75
2023-03-01T03:25:38.902Z,98334.81
2023-03-01T03:28:10.956Z,98334.59
2023-03-01T03:30:42.179Z,98330.25
2023-03-01T03:33:13.657Z,98323.09
2023-03-01T03:35:48.934Z,98313.38
2023-03-01T03:38:22.936Z,98314.06
2023-03-01T03:41:09.620Z,98316.88
2023-03-01T03:43:39.499Z,98319.19
2023-03-01T03:46:08.197Z,98328.69
2023-03-01T03:48:42.230Z,98330.94
2023-03-01T03:51:13.933Z,98335.88
2023-03-01T03:53:41.770Z,98342.56
2023-03-01T03:56:09.368Z,98350.63
2023-03-01T03:58:37.430Z,98342.22
2023-03-01T04:01:05.458Z,98347.09
2023-03-01T04:03:36.028Z,98350.03
2023-03-01T04:06:05.274Z,98351.75
2023-03-01T04:08:33.138Z,98350.19
2023-03-01T04:11:23.926Z,98355.63
2023-03-01T04:13:52.284Z,98344.28
2023-03-01T04:16:20.203Z,98343.97
2023-03-01T04:18:48.590Z,98348.19
2023-03-01T04:21:16.151Z,98350.59
2023-03-01T04:23:43.884Z,98346.53
2023-03-01T04:26:11.318Z,98340.88
2023-03-01T04:28:44.015Z,98347.59
2023-03-01T04:31:17.397Z,98344.50
2023-03-01T04:33:53.750Z,98340.72
2023-03-01T04:36:24.810Z,98335.56
2023-03-01T04:38:53.117Z,98329.31
2023-03-01T04:41:23.253Z,98341.34
2023-03-01T04:43:50.936Z,98337.66
2023-03-01T04:46:21.722Z,98342.66
2023-03-01T04:48:49.938Z,98339.94
2023-03-01T04:51:17.726Z,98337.34
2023-03-01T04:53:45.835Z,98340.59
2023-03-01T04:56:15.015Z,98350.78
2023-03-01T04:58:43.096Z,98346.50
2023-03-01T05:01:17.186Z,98340.97
2023-03-01T05:03:46.523Z,98330.22
2023-03-01T05:06:14.304Z,98336.03
2023-03-01T05:08:42.667Z,98337.13
2023-03-01T05:11:10.547Z,98339.06
2023-03-01T05:13:40.298Z,98340.06
2023-03-01T05:16:12.932Z,98338.81
2023-03-01T05:18:41.535Z,98336.75
2023-03-01T05:21:18.370Z,98335.78
2023-03-01T05:23:47.909Z,98345.09
2023-03-01T05:26:27.898Z,98353.63
2023-03-01T05:29:00.219Z,98348.53
2023-03-01T05:31:28.797Z,98339.16
2023-03-01T05:33:56.055Z,98351.50
2023-03-01T05:36:23.360Z,98347.09
2023-03-01T05:38:50.593Z,98348.19
2023-03-01T05:41:18.133Z,98350.41
2023-03-01T05:43:46.169Z,98351.06
2023-03-01T05:46:16.421Z,98347.38
2023-03-01T05:48:43.802Z,98340.28
2023-03-01T05:51:11.269Z,98344.06
2023-03-01T05:53:38.457Z,98341.19
2023-03-01T05:56:06.185Z,98344.50
2023-03-01T05:58:33.546Z,98353.34
2023-03-01T06:01:00.825Z,98350.50
2023-03-01T06:03:28.182Z,98353.50
2023-03-01T06:05:59.243Z,98341.72
2023-03-01T06:08:28.299Z,98353.13
2023-03-01T06:10:55.819Z,98348.50
2023-03-01T06:13:24.607Z,98350.19
2023-03-01T06:15:52.953Z,98351.88
2023-03-01T06:18:20.356Z,98342.38
2023-03-01T06:20:55.375Z,98342.03
2023-03-01T06:23:24.188Z,98349.13
2023-03-01T06:25:51.892Z,98350.56
2023-03-01T06:28:19.122Z,98351.00
2023-03-01T06:30:47.111Z,98361.50
2023-03-01T06:33:15.152Z,98357.50
2023-03-01T06:35:42.655Z,98360.00
2023-03-01T06:38:10.485Z,98366.53
2023-03-01T06:40:37.659Z,98360.22
2023-03-01T06:43:05.354Z,98362.84
2023-03-01T06:45:33.407Z,98356.03
2023-03-01T06:48:08.378Z,98362.06
2023-03-01T06:50:39.318Z,98367.25
2023-03-01T06:53:06.761Z,98362.13
2023-03-01T06:55:34.131Z,98371.16
2023-03-01T06:58:03.056Z,98364.00
2023-03-01T07:00:31.013Z,98358.94
2023-03-01T07:03:03.571Z,98358.56
2023-03-01T07:05:31.754Z,98355.06
2023-03-01T07:07:59.124Z,98359.22
2023-03-01T07:10:26.479Z,98351.78
2023-03-01T07:13:00.673Z,98351.56
2023-03-01T07:15:28.905Z,98351.50
2023-03-01T07:17:57.358Z,98352.47
2023-03-01T07:20:26.304Z,98351.03
2023-03-01T07:22:55.848Z,98355.09
2023-03-01T07:25:23.372Z,98349.28
2023-03-01T07:27:53.469Z,98343.63
2023-03-01T07:30:22.343Z,98345.94
2023-03-01T07:32:49.858Z,98347.16
2023-03-01T07:35:17.317Z,98347.91
2023-03-01T07:37:45.078Z,98366.03
2023-03-01T07:40:13.141Z,98351.94
2023-03-01T07:42:40.440Z,98356.19
2023-03-01T07:45:08.847Z,98364.31
2023-03-01T07:47:36.176Z,98365.97
2023-03-01T07:50:04.944Z,98369.97
2023-03-01T07:52:32.192Z,98376.78
2023-03-01T07:54:59.418Z,98366.88
2023-03-01T07:57:26.724Z,98364.22
2023-03-01T07:59:54.042Z,98362.75
2023-03-01T08:02:21.251Z,98361.59
2023-03-01T08:04:48.550Z,98349.78
2023-03-01T08:07:15.693Z,98355.22
2023-03-01T08:09:43.008Z,98357.91
2023-03-01T08:12:10.136Z,98362.09
2023-03-01T08:14:37.443Z,98358.34
2023-03-01T08:17:04.699Z,98349.47
2023-03-01T08:19:32.176Z,98345.97
2023-03-01T08:22:00.929Z,98335.56
2023-03-01T08:24:28.187Z,98350.66
2023-03-01T08:26:55.813Z,98343.44
2023-03-01T08:29:23.533Z,98334.56
2023-03-01T08:31:51.002Z,98333.25
2023-03-01T08:34:19.645Z,98326.81
2023-03-01T08:36:47.793Z,98341.25
2023-03-01T08:39:18.055Z,98327.13
2023-03-01T08:41:47.082Z,98323.31
2023-03-01T08:44:17.904Z,98325.84
2023-03-01T08:46:46.654Z,98322.91
2023-03-01T08:49:18.795Z,98323.47
2023-03-01T08:51:47.557Z,98312.16
2023-03-01T08:54:21.510Z,98314.22
2023-03-01T08:56:49.856Z,98315.09
2023-03-01T08:59:18.626Z,98321.38
2023-03-01T09:01:46.459Z,98313.69
2023-03-01T09:04:15.684Z,98304.09
2023-03-01T09:06:43.164Z,98312.22
2023-03-01T09:09:17.406Z,98313.31
2023-03-01T09:11:47.373Z,98318.81
2023-03-01T09:14:15.702Z,98324.28
2023-03-01T09:16:43.717Z,98319.59
2023-03-01T09:19:11.181Z,98317.75
2023-03-01T09:21:41.149Z,98319.03
2023-03-01T09:24:15.479Z,98313.53
2023-03-01T09:26:44.047Z,98312.16
2023-03-01T09:29:11.443Z,98321.69
2023-03-01T09:31:39.651Z,98327.19
2023-03-01T09:34:07.443Z,98323.25
2023-03-01T09:36:35.152Z,98322.56
2023-03-01T09:39:03.852Z,98325.91
2023-03-01T09:41:49.877Z,98321.22
2023-03-01T09:44:32.704Z,98321.00
2023-03-01T09:47:01.029Z,98321.13
2023-03-01T09:49:36.098Z,98328.59
2023-03-01T09:52:26.708Z,98328.91
2023-03-01T09:54:59.649Z,98332.56
2023-03-01T09:57:41.970Z,98314.72
2023-03-01T10:00:40.172Z,98316.59
2023-03-01T10:03:29.335Z,98310.75
2023-03-01T10:06:35.288Z,98315.88
2023-03-01T10:09:15.163Z,98307.72
2023-03-01T10:11:55.313Z,98299.28
2023-03-01T10:14:48.397Z,98303.94
2023-03-01T10:17:57.862Z,98300.16
2023-03-01T10:20:46.006Z,98288.09
2023-03-01T10:23:13.409Z,98294.31
2023-03-01T10:26:12.958Z,98299.16
2023-03-01T10:28:51.973Z,98293.34
2023-03-01T10:31:29.671Z,98290.91
2023-03-01T10:33:59.016Z,98282.72
2023-03-01T10:36:26.287Z,98279.44
2023-03-01T10:38:58.855Z,98279.69
2023-03-01T10:41:28.622Z,98280.09
2023-03-01T10:44:00.615Z,98277.56
2023-03-01T10:46:33.592Z,98283.09
2023-03-01T10:49:14.903Z,98273.84
2023-03-01T10:51:45.928Z,98266.06
2023-03-01T10:54:33.311Z,98268.03
2023-03-01T10:57:06.490Z,98265.38
2023-03-01T10:59:39.479Z,98260.75
2023-03-01T11:02:29.802Z,98257.22
2023-03-01T11:05:06.257Z,98255.41
2023-03-01T11:07:49.356Z,98254.75
2023-03-01T11:10:25.084Z,98246.41
2023-03-01T11:12:54.455Z,98237.81
2023-03-01T11:15:29.906Z,98248.03
2023-03-01T11:18:08.889Z,98256.00
2023-03-01T11:20:40.505Z,98254.84
2023-03-01T11:23:14.024Z,98252.66
2023-03-01T11:25:47.031Z,98231.66
2023-03-01T11:28:19.148Z,98235.66
2023-03-01T11:31:08.693Z,98237.34
2023-03-01T11:34:06.218Z,98240.06
2023-03-01T11:36:56.016Z,98236.97
2023-03-01T11:39:39.043Z,98225.09
2023-03-01T11:42:19.113Z,98218.94
2023-03-01T11:44:51.619Z,98235.84
2023-03-01T11:48:13.703Z,98226.13
2023-03-01T11:50:49.371Z,98214.34
2023-03-01T11:53:31.738Z,98207.41
2023-03-01T11:56:28.622Z,98202.53
2023-03-01T11:59:31.952Z,98197.38
2023-03-01T12:02:27.167Z,98191.09
2023-03-01T12:05:17.923Z,98182.94
2023-03-01T12:07:54.183Z,98189.88
2023-03-01T12:10:26.786Z,98193.50
2023-03-01T12:13:19.575Z,98176.81
2023-03-01T12:16:38.333Z,98185.41
2023-03-01T12:19:46.797Z,98177.47
2023-03-01T12:22:32.895Z,98181.94
2023-03-01T12:25:19.654Z,98172.00
2023-03-01T12:28:11.448Z,98172.72
2023-03-01T12:31:38.582Z,98163.03
2023-03-01T12:34:38.824Z,98163.94
2023-03-01T12:37:48.681Z,98151.56
2023-03-01T12:40:28.533Z,98150.91
2023-03-01T12:43:16.667Z,98151.50
2023-03-01T12:46:08.860Z,98149.78
2023-03-01T12:48:53.419Z,98141.38
2023-03-01T12:51:28.013Z,98132.41
2023-03-01T12:53:58.145Z,98132.84
2023-03-01T12:56:30.599Z,98137.69
2023-03-01T12:59:26.619Z,98138.44
2023-03-01T13:02:14.472Z,98137.13
2023-03-01T13:05:06.251Z,98127.31
2023-03-01T13:08:10.539Z,98129.44
2023-03-01T13:10:58.695Z,98133.22
2023-03-01T13:13:28.938Z,98130.09
2023-03-01T13:15:57.721Z,98123.34
2023-03-01T13:18:26.391Z,98119.13
2023-03-01T13:21:00.520Z,98117.53
2023-03-01T13:23:40.351Z,98114.38
2023-03-01T13:26:19.588Z,98114.59
2023-03-01T13:28:49.887Z,98119.44
2023-03-01T13:31:16.933Z,98110.53
2023-03-01T13:33:52.642Z,98108.59
2023-03-01T13:36:29.151Z,98112.47
2023-03-01T13:39:16.804Z,98102.03
2023-03-01T13:41:43.955Z,98099.00
2023-03-01T13:44:39.854Z,98093.31
2023-03-01T13:47:07.245Z,98092.38
2023-03-01T13:49:58.979Z,98097.78
2023-03-01T13:53:19.445Z,98088.38
2023-03-01T13:56:02.172Z,98095.44
2023-03-01T13:58:33.517Z,98099.03
2023-03-01T14:01:07.102Z,98093.59
2023-03-01T14:03:42.844Z,98085.28
2023-03-01T14:06:39.884Z,98090.50
2023-03-01T14:09:22.587Z,98088.50
2023-03-01T14:12:09.905Z,98089.03
2023-03-01T14:15:05.967Z,98092.38
2023-03-01T14:18:05.352Z,98084.28
2023-03-01T14:20:41.300Z,98077.28
2023-03-01T14:23:16.755Z,98086.31
2023-03-01T14:25:59.004Z,98082.88
2023-03-01T14:28:35.416Z,98083.13
2023-03-01T14:31:03.667Z,98085.44
2023-03-01T14:33:34.458Z,98086.34
2023-03-01T14:36:06.494Z,98091.78
2023-03-01T14:38:39.545Z,98083.69
2023-03-01T14:41:16.886Z,98088.47
2023-03-01T14:43:59.059Z,98091.28
2023-03-01T14:46:34.129Z,98085.13
2023-03-01T14:49:13.281Z,98085.13
2023-03-01T14:51:44.030Z,98084.97
2023-03-01T14:54:27.791Z,98083.44
2023-03-01T14:57:00.876Z,98081.44
2023-03-01T14:59:28.889Z,98080.25
2023-03-01T15:01:59.255Z,98077.94
2023-03-01T15:04:28.693Z,98081.44
2023-03-01T15:07:05.740Z,98075.00
2023-03-01T15:09:37.628Z,98077.50
2023-03-01T15:12:37.056Z,98080.38
2023-03-01T15:15:42.515Z,98076.00
2023-03-01T15:18:28.607Z,98073.16
2023-03-01T15:20:57.087Z,98064.41
2023-03-01T15:23:30.952Z,98066.53
2023-03-01T15:25:59.160Z,98063.47
2023-03-01T15:28:38.644Z,98068.13
2023-03-01T15:31:24.231Z,98064.69
2023-03-01T15:33:52.449Z,98063.44
2023-03-01T15:36:32.156Z,98065.41
2023-03-01T15:39:01.318Z,98064.59
2023-03-01T15:41:39.129Z,98057.44
2023-03-01T15:44:35.035Z,98058.25
2023-03-01T15:47:29.273Z,98055.19
2023-03-01T15:49:58.325Z,98055.16
2023-03-01T15:52:37.876Z,98049.75
2023-03-01T15:55:16.644Z,98050.63
2023-03-01T15:57:43.974Z,98046.41
2023-03-01T16:00:14.471Z,98054.34
2023-03-01T16:02:44.358Z,98053.31
2023-03-01T16:05:28.297Z,98052.59
2023-03-01T16:07:56.083Z,98054.06
2023-03-01T16:10:24.131Z,98062.75
2023-03-01T16:12:53.506Z,98059.53
2023-03-01T16:15:31.764Z,98063.38
2023-03-01T16:17:59.935Z,98067.06
2023-03-01T16:20:30.954Z,98073.94
2023-03-01T16:23:03.608Z,98065.31
2023-03-01T16:25:31.309Z,98065.03
2023-03-01T16:28:01.244Z,98070.31
2023-03-01T16:30:28.809Z,98066.13
2023-03-01T16:32:55.984Z,98069.38
2023-03-01T16:35:24.497Z,98067.97
2023-03-01T16:37:53.615Z,98067.59
2023-03-01T16:40:28.294Z,98071.03
2023-03-01T16:43:02.186Z,98076.47
2023-03-01T16:45:36.791Z,98067.63
2023-03-01T16:48:05.235Z,98066.84
2023-03-01T16:50:32.513Z,98080.47
2023-03-01T16:52:59.728Z,98081.50
2023-03-01T16:55:27.033Z,98080.28
2023-03-01T16:57:54.366Z,98079.06
2023-03-01T17:00:23.569Z,98080.91
2023-03-01T17:02:50.924Z,98081.84
2023-03-01T17:05:18.566Z,98082.66
2023-03-01T17:07:45.833Z,98079.03
2023-03-01T17:10:13.236Z,98081.28
2023-03-01T17:12:40.664Z,98080.22
2023-03-01T17:15:08.429Z,98087.25
2023-03-01T17:17:36.036Z,98080.41
2023-03-01T17:20:05.010Z,98080.81
2023-03-01T17:22:32.400Z,98085.41
2023-03-01T17:24:59.970Z,98083.16
2023-03-01T17:27:27.615Z,98079.13
2023-03-01T17:29:54.911Z,98075.84
2023-03-01T17:32:22.509Z,98078.41
2023-03-01T17:34:49.782Z,98076.22
2023-03-01T17:37:17.137Z,98079.47
2023-03-01T17:39:44.413Z,98078.09
2023-03-01T17:42:11.656Z,98080.09
2023-03-01T17:44:39.120Z,98088.78
2023-03-01T17:47:06.760Z,98091.84
2023-03-01T17:49:34.528Z,98100.69
2023-03-01T17:52:01.814Z,98091.88
2023-03-01T17:54:29.167Z,98093.63
2023-03-01T17:56:58.893Z,98092.41
2023-03-01T17:59:31.365Z,98090.78
2023-03-01T18:02:01.568Z,98080.31
2023-03-01T18:04:30.149Z,98087.13
2023-03-01T18:06:58.591Z,98083.50
2023-03-01T18:09:28.381Z,98080.91
2023-03-01T18:11:55.869Z,98087.56
2023-03-01T18:14:23.604Z,98086.38
2023-03-01T18:16:50.961Z,98086.22
2023-03-01T18:19:18.690Z,98076.38
2023-03-01T18:21:46.019Z,98076.19
2023-03-01T18:24:13.474Z,98073.38
2023-03-01T18:26:40.765Z,98073.34
2023-03-01T18:29:08.385Z,98068.88
2023-03-01T18:31:35.744Z,98069.06
2023-03-01T18:34:03.843Z,98064.00
2023-03-01T18:36:35.266Z,98061.56
2023-03-01T18:39:05.608Z,98064.56
2023-03-01T18:41:34.253Z,98055.31
2023-03-01T18:44:03.768Z,98056.09
2023-03-01T18:46:31.970Z,98060.34
2023-03-01T18:48:59.815Z,98056.34
2023-03-01T18:51:29.126Z,98064.16
2023-03-01T18:54:00.976Z,98060.97
2023-03-01T18:56:33.993Z,98068.66
2023-03-01T18:59:02.528Z,98073.03
2023-03-01T19:01:34.709Z,98064.59
2023-03-01T19:04:04.753Z,98055.81
2023-03-01T19:06:35.257Z,98055.09
2023-03-01T19:09:03.362Z,98057.63
2023-03-01T19:11:33.503Z,98058.38
2023-03-01T19:14:02.537Z,98057.13
2023-03-01T19:16:32.402Z,98070.34
2023-03-01T19:19:03.317Z,98060.31
2023-03-01T19:21:32.508Z,98062.50
2023-03-01T19:24:02.507Z,98062.69
2023-03-01T19:26:31.431Z,98057.13
2023-03-01T19:28:59.249Z,98055.59
2023-03-01T19:31:29.713Z,98048.53
2023-03-01T19:34:10.964Z,98054.91
2023-03-01T19:36:44.046Z,98052.78
2023-03-01T19:39:14.007Z,98048.75
2023-03-01T19:41:42.739Z,98055.03
2023-03-01T19:44:10.452Z,98051.06
2023-03-01T19:46:38.073Z,98050.91
2023-03-01T19:49:06.377Z,98052.38
2023-03-01T19:51:36.218Z,98051.31
2023-03-01T19:54:05.996Z,98047.88
2023-03-01T19:56:34.706Z,98054.66
2023-03-01T19:59:04.499Z,98055.09
2023-03-01T20:01:34.808Z,98056.28
2023-03-01T20:04:03.834Z,98052.84
2023-03-01T20:06:31.643Z,98059.97
2023-03-01T20:09:02.376Z,98060.59
2023-03-01T20:11:34.542Z,98056.44
2023-03-01T20:14:02.319Z,98060.41
2023-03-01T20:16:29.907Z,98045.66
2023-03-01T20:19:00.615Z,98057.66
2023-03-01T20:21:28.547Z,98051.25
2023-03-01T20:23:55.897Z,98046.06
2023-03-01T20:26:25.474Z,98048.84
2023-03-01T20:28:57.255Z,98054.50
2023-03-01T20:31:30.037Z,98047.34
2023-03-01T20:33:59.135Z,98050.75
2023-03-01T20:36:28.294Z,98048.72
2023-03-01T20:38:56.287Z,98046.63
2023-03-01T20:41:26.469Z,98041.25
2023-03-01T20:43:58.743Z,98046.03
2023-03-01T20:46:27.137Z,98042.97
2023-03-01T20:48:54.602Z,98049.75
2023-03-01T20:51:22.039Z,98044.13
2023-03-01T20:53:49.552Z,98049.41
2023-03-01T20:56:19.088Z,98050.06
2023-03-01T20:59:04.519Z,98047.88
2023-03-01T21:01:32.028Z,98051.31
2023-03-01T21:03:59.295Z,98048.59
2023-03-01T21:06:26.608Z,98050.66
2023-03-01T21:08:56.052Z,98045.47
2023-03-01T21:11:27.093Z,98048.25
2023-03-01T21:13:55.705Z,98050.31
2023-03-01T21:16:23.590Z,98042.94
2023-03-01T21:18:51.200Z,98042.22
2023-03-01T21:21:22.457Z,98040.84
2023-03-01T21:23:49.905Z,98039.97
2023-03-01T21:26:24.119Z,98051.25
2023-03-01T21:28:59.175Z,98055.47
2023-03-01T21:31:34.130Z,98053.84
2023-03-01T21:34:05.871Z,98047.41
2023-03-01T21:36:34.799Z,98049.34
2023-03-01T21:39:02.995Z,98043.09
2023-03-01T21:41:34.533Z,98047.56
2023-03-01T21:44:03.801Z,98043.41
2023-03-01T21:46:36.656Z,98038.38
2023-03-01T21:49:05.250Z,98030.97
2023-03-01T21:51:32.988Z,98024.16
2023-03-01T21:54:03.749Z,98028.06
2023-03-01T21:56:34.533Z,98035.22
2023-03-01T21:59:02.206Z,98035.69
2023-03-01T22:01:30.292Z,98034.09
2023-03-01T22:04:00.340Z,98040.41
2023-03-01T22:06:31.635Z,98044.34
2023-03-01T22:09:05.954Z,98044.34
2023-03-01T22:11:38.142Z,98047.38
2023-03-01T22:14:06.323Z,98053.38
2023-03-01T22:16:37.038Z,98053.94
2023-03-01T22:19:06.424Z,98052.34
2023-03-01T22:21:34.599Z,98046.41
2023-03-01T22:24:02.271Z,98044.31
2023-03-01T22:26:37.389Z,98041.91
2023-03-01T22:29:12.416Z,98043.41
2023-03-01T22:31:41.013Z,98042.19
2023-03-01T22:34:08.796Z,98040.78
2023-03-01T22:36:36.750Z,98036.44
2023-03-01T22:39:04.448Z,98040.56
2023-03-01T22:41:44.039Z,98037.25
2023-03-01T22:44:18.658Z,98039.91
2023-03-01T22:46:47.059Z,98046.53
2023-03-01T22:49:14.598Z,98042.94
2023-03-01T22:51:43.595Z,98047.97
2023-03-01T22:54:11.643Z,98036.63
2023-03-01T22:56:40.145Z,98038.59
2023-03-01T22:59:11.088Z,98031.69
2023-03-01T23:01:40.714Z,98034.97
2023-03-01T23:04:08.632Z,98028.13
2023-03-01T23:06:50.597Z,98029.56
2023-03-01T23:09:20.874Z,98026.84
2023-03-01T23:11:48.874Z,98030.56
2023-03-01T23:14:16.465Z,98026.53
2023-03-01T23:16:43.773Z,98029.13
2023-03-01T23:19:11.078Z,98027.06
2023-03-01T23:21:38.399Z,98013.81
2023-03-01T23:24:06.096Z,98018.63
2023-03-01T23:26:33.659Z,98018.31
2023-03-01T23:29:01.145Z,98026.66
2023-03-01T23:31:30.193Z,98016.28
2023-03-01T23:33:57.733Z,98019.66
2023-03-01T23:36:34.407Z,98020.50
2023-03-01T23:39:06.850Z,98019.94
2023-03-01T23:41:35.359Z,98018.94
2023-03-01T23:44:05.221Z,98020.72
2023-03-01T23:46:36.150Z,98014.91
2023-03-01T23:49:04.705Z,98019.78
2023-03-01T23:51:32.105Z,98026.78
2023-03-01T23:54:05.481Z,98019.34
2023-03-01T23:56:36.763Z,98019.53
2023-03-01T23:59:19.764Z,98010.34
